KBVO/BVO METAR and TAF weather

Enter ICAO airport designator
Station Type Date Time Source
KBVO METAR 2019/05/20 09:53 UTC NOAA

KBVO 200953Z AUTO 00000KT 10SM CLR 12/11 A3001 RMK AO2 SLP154 T01220106


Station Type Date Time Source
KBVO Decoded METAR 2019/05/20 09:53 UTC NOAA

BARTLESVILLE MUNICIPAL AIRPORT , OK, United States (KBVO) 36-46N 96-01W 210M
May 20, 2019 - 05:53 AM EDT / 2019.05.20 0953 UTC
Wind: Calm:0
Visibility: 10 mile(s):0
Sky conditions: clear
Temperature: 54.0 F (12.2 C)
Dew Point: 51.1 F (10.6 C)
Relative Humidity: 89%
Pressure (altimeter): 30.01 in. Hg (1016 hPa)
ob: KBVO 200953Z AUTO 00000KT 10SM CLR 12/11 A3001 RMK AO2 SLP154 T01220106
cycle: 10

Station Type Date Time Source
KBVO TAF 2019/05/20 06:22 UTC NOAA

TAF KBVO 200520Z 2006/2106 02003KT P6SM BKN250
FM201200 07007KT P6SM BKN150
FM201500 09012KT P6SM VCTS OVC050CB
FM202000 10013G20KT 4SM TSRA OVC035CB
TEMPO 2021/2101 2SM +TSRA OVC015CB
FM210200 14013G20KT 5SM -TSRA OVC015CB

Example: see airport list